Terminal Aerodrome Forecast
Issued by NWS

Home | Current Version | Previous Version | Text Only | Print | Product List | Glossary On
Versions: 1 2 3 4 5 6 7 8 9 10 11 12
237
FTUS45 KABQ 290539
TAFGUP
TAF
KGUP 290539Z 2906/3006 05007KT P6SM FEW080 SCT110
     FM292300 05009KT P6SM VCSH SCT080 BKN110
     FM300300 06005KT P6SM SCT120=

USA.gov is the U.S. government's official web portal to all federal, state and local government web resources and services.